Strona główna
METAR-TAF:

METAR-TAF

Lotnisko :

Sherbrooke, Quebec, Kanada

Szerokość geograficzna: 45-24N, Długość geograficzna: 071-53W, wysokość: 170 m

Aktualna obserwacja pogody

Raport powstał 1 godzina i 3 minut temu, godzina 08:00 UTC
Wiatr 4 kt od wschód
Temperatura 12°C
Wilgotność 100%
Ciśnienie 1022 hPa
Widzialność: 14.5 km
Mało chmury na wysokości 25000 ft

METAR: CYSC 200800Z AUTO 09004KT 9SM FEW250 12/12 A3017 RMK SLP218

czas: 05:03 (09:03 UTC)

Prognoza

Raport powstał 9 godziny i 21 minut temu, godzina 23:42 UTC
Prognoza ważna od 20 godzina 00 UTC do 20 godzina 03 UTC
Wiatr 3 kt z kierunków zmiennych
Widzialność: 10 km
Mało chmury na wysokości 24000 ft

TAF: CYSC 192342Z 2000/2003 VRB03KT P6SM FEW240 RMK FCST BASED ON AUTO OBS. NXT FCST WILL BE ISSUED AT 201045Z

Obserwacja i prognoza pogody dla ponad 4000 lotnisk (raport METAR i TAF).

Dostępne stacje oznaczono żółtymi i czerwonymi punktami na mapie.

Najedź kursorem aby zobaczyć nazwę stacji.

Kliknij aby zobaczyć obserwacje i prognozy pogody.

Aby zmienić mapę: kliknij na zielony przycisk z czarnym krzyżykiem, aby powiększyć; na zielony przycisk z myślnikiem, aby pomniejszyć; na zielone strzałki, aby przejść do map sąsiednich.


METAR-TAF: